createdAt,value
2017-05-19T00:01:40.608Z,16.24
2017-05-19T00:04:10.103Z,15.68
2017-05-19T00:06:39.869Z,12.96
2017-05-19T00:09:09.590Z,11.24
2017-05-19T00:11:39.343Z,11.18
2017-05-19T00:14:09.069Z,11.58
2017-05-19T00:16:38.777Z,9.40
2017-05-19T00:19:08.436Z,8.70
2017-05-19T00:21:38.163Z,8.50
2017-05-19T00:24:07.863Z,9.20
2017-05-19T00:26:37.586Z,11.30
2017-05-19T00:29:07.320Z,9.86
2017-05-19T00:31:37.029Z,9.74
2017-05-19T00:34:06.959Z,10.04
2017-05-19T00:36:36.630Z,11.70
2017-05-19T00:39:06.341Z,13.48
2017-05-19T00:41:35.996Z,14.98
2017-05-19T00:44:05.699Z,17.36
2017-05-19T00:46:35.403Z,15.14
2017-05-19T00:49:05.119Z,17.96
2017-05-19T00:51:34.824Z,15.36
2017-05-19T00:54:04.521Z,16.02
2017-05-19T00:56:34.196Z,14.90
2017-05-19T00:59:03.900Z,16.58
2017-05-19T01:01:33.717Z,14.96
2017-05-19T01:04:02.687Z,14.86
2017-05-19T01:06:31.579Z,14.82
2017-05-19T01:09:01.564Z,18.72
2017-05-19T01:11:31.257Z,15.14
2017-05-19T01:14:01.016Z,12.82
2017-05-19T01:16:30.658Z,11.02
2017-05-19T01:19:00.348Z,11.88
2017-05-19T01:21:30.144Z,12.40
2017-05-19T01:24:00.215Z,11.88
2017-05-19T01:26:29.931Z,13.12
2017-05-19T01:28:59.883Z,11.66
2017-05-19T01:31:29.572Z,12.34
2017-05-19T01:33:59.267Z,12.68
2017-05-19T01:36:28.959Z,13.50
2017-05-19T01:38:58.661Z,15.50
2017-05-19T01:41:27.628Z,14.86
2017-05-19T01:43:57.344Z,14.66
2017-05-19T01:46:27.802Z,13.72
2017-05-19T01:48:57.475Z,12.26
2017-05-19T01:51:27.292Z,15.02
2017-05-19T01:53:57.068Z,15.84
2017-05-19T01:56:26.756Z,19.24
2017-05-19T01:58:56.449Z,20.88
2017-05-19T02:01:26.109Z,19.12
2017-05-19T02:03:55.772Z,17.84
2017-05-19T02:06:25.587Z,18.50
2017-05-19T02:08:54.508Z,19.44
2017-05-19T02:11:24.238Z,18.84
2017-05-19T02:13:53.961Z,20.90
2017-05-19T02:16:23.638Z,18.72
2017-05-19T02:18:53.290Z,19.78
2017-05-19T02:21:23.036Z,17.38
2017-05-19T02:23:52.736Z,18.32
2017-05-19T02:26:22.400Z,20.90
2017-05-19T02:28:52.092Z,17.84
2017-05-19T02:31:21.763Z,17.04
2017-05-19T02:33:51.424Z,17.48
2017-05-19T02:36:20.334Z,16.94
2017-05-19T02:38:50.024Z,18.42
2017-05-19T02:41:19.690Z,17.20
2017-05-19T02:43:49.419Z,18.62
2017-05-19T02:46:19.081Z,16.68
2017-05-19T02:48:48.755Z,16.46
2017-05-19T02:51:18.720Z,18.22
2017-05-19T02:53:48.360Z,17.56
2017-05-19T02:56:18.049Z,15.54
2017-05-19T02:58:47.731Z,13.84
2017-05-19T03:01:16.635Z,13.28
2017-05-19T03:03:46.480Z,12.20
2017-05-19T03:06:16.180Z,13.20
2017-05-19T03:08:45.879Z,13.60
2017-05-19T03:11:15.595Z,14.38
2017-05-19T03:13:45.303Z,12.08
2017-05-19T03:16:15.452Z,14.66
2017-05-19T03:18:45.419Z,14.30
2017-05-19T03:21:14.371Z,13.20
2017-05-19T03:23:44.080Z,14.48
2017-05-19T03:26:13.783Z,13.56
2017-05-19T03:28:43.459Z,14.02
2017-05-19T03:31:13.156Z,12.86
2017-05-19T03:33:42.844Z,12.98
2017-05-19T03:36:12.523Z,11.94
2017-05-19T03:38:42.220Z,12.02
2017-05-19T03:41:11.939Z,9.32
2017-05-19T03:43:41.634Z,9.88
2017-05-19T03:46:11.347Z,7.64
2017-05-19T03:48:41.143Z,10.96
2017-05-19T03:51:11.432Z,11.18
2017-05-19T03:53:41.126Z,6.84
2017-05-19T03:56:10.799Z,10.28
2017-05-19T03:58:40.500Z,12.74
2017-05-19T04:01:10.195Z,13.28
2017-05-19T04:03:39.889Z,15.18
2017-05-19T04:06:09.594Z,16.84
2017-05-19T04:08:39.351Z,19.64
2017-05-19T04:11:08.311Z,19.34
2017-05-19T04:13:37.997Z,19.62
2017-05-19T04:16:07.728Z,19.66
2017-05-19T04:18:38.042Z,18.88
2017-05-19T04:21:08.125Z,9.74
2017-05-19T04:23:37.831Z,9.52
2017-05-19T04:26:07.518Z,8.40
2017-05-19T04:28:37.233Z,7.32
2017-05-19T04:31:07.385Z,6.44
2017-05-19T04:33:37.100Z,4.34
2017-05-19T04:36:06.933Z,5.14
2017-05-19T04:38:36.652Z,4.66
2017-05-19T04:41:06.420Z,4.98
2017-05-19T04:43:35.360Z,5.04
2017-05-19T04:46:04.351Z,5.88
2017-05-19T04:48:34.142Z,6.04
2017-05-19T04:51:03.939Z,8.82
2017-05-19T04:53:33.631Z,5.58
2017-05-19T04:56:03.380Z,7.46
2017-05-19T04:58:33.099Z,7.58
2017-05-19T05:02:21.946Z,6.30
2017-05-19T05:04:51.659Z,7.12
2017-05-19T05:07:21.363Z,5.78
2017-05-19T05:09:51.106Z,6.40
2017-05-19T05:12:20.847Z,5.74
2017-05-19T05:14:50.557Z,6.64
2017-05-19T05:17:20.427Z,6.16
2017-05-19T05:19:50.220Z,7.40
2017-05-19T05:22:20.054Z,5.60
2017-05-19T05:24:49.760Z,5.74
2017-05-19T05:27:19.529Z,5.74
2017-05-19T05:29:49.361Z,5.52
2017-05-19T05:32:19.088Z,7.72
2017-05-19T05:34:49.134Z,6.60
2017-05-19T05:37:18.868Z,5.18
2017-05-19T05:39:48.752Z,5.70
2017-05-19T05:42:18.528Z,5.22
2017-05-19T05:44:48.506Z,4.86
2017-05-19T05:47:18.071Z,5.86
2017-05-19T05:49:47.960Z,4.76
2017-05-19T05:52:20.674Z,5.60
2017-05-19T05:54:49.732Z,5.32
2017-05-19T05:57:19.412Z,5.78
2017-05-19T05:59:49.169Z,8.48
2017-05-19T06:02:18.871Z,5.70
2017-05-19T06:04:48.564Z,5.08
2017-05-19T06:07:18.313Z,5.34
2017-05-19T06:09:48.135Z,7.10
2017-05-19T06:12:17.824Z,5.94
2017-05-19T06:14:47.568Z,8.08
2017-05-19T06:17:17.346Z,7.04
2017-05-19T06:19:47.075Z,5.26
2017-05-19T06:22:16.928Z,5.42
2017-05-19T06:24:47.215Z,5.76
2017-05-19T06:27:16.943Z,7.24
2017-05-19T06:29:47.239Z,5.06
2017-05-19T06:32:17.059Z,6.26
2017-05-19T06:34:46.977Z,7.50
2017-05-19T06:37:16.919Z,5.40
2017-05-19T06:39:46.769Z,4.84
2017-05-19T06:42:16.548Z,5.18
2017-05-19T06:44:46.486Z,4.58
2017-05-19T06:47:16.410Z,6.28
2017-05-19T06:49:46.163Z,3.84
2017-05-19T06:52:16.027Z,3.52
2017-05-19T06:54:45.757Z,3.54
2017-05-19T06:57:15.520Z,3.18
2017-05-19T06:59:45.277Z,3.18
2017-05-19T07:02:15.015Z,3.90
2017-05-19T07:04:44.749Z,4.10
2017-05-19T07:07:14.491Z,4.44
2017-05-19T07:09:44.278Z,4.96
2017-05-19T07:12:14.189Z,4.18
2017-05-19T07:14:43.973Z,4.06
2017-05-19T07:17:13.676Z,4.54
2017-05-19T07:19:43.399Z,3.68
2017-05-19T07:22:12.374Z,3.52
2017-05-19T07:24:42.067Z,3.32
2017-05-19T07:27:11.892Z,3.02
2017-05-19T07:29:41.708Z,3.32
2017-05-19T07:32:11.479Z,3.74
2017-05-19T07:34:41.211Z,4.90
2017-05-19T07:37:11.143Z,4.56
2017-05-19T07:39:40.900Z,3.90
2017-05-19T07:42:10.572Z,5.14
2017-05-19T07:44:40.291Z,3.92
2017-05-19T07:47:09.997Z,4.62
2017-05-19T07:49:39.836Z,5.32
2017-05-19T07:52:09.590Z,4.72
2017-05-19T07:54:39.306Z,4.00
2017-05-19T07:57:09.125Z,4.80
2017-05-19T07:59:38.892Z,3.70
2017-05-19T08:02:08.576Z,3.50
2017-05-19T08:04:38.443Z,3.76
2017-05-19T08:07:08.228Z,4.06
2017-05-19T08:09:38.092Z,4.48
2017-05-19T08:12:07.884Z,3.72
2017-05-19T08:14:37.665Z,4.12
2017-05-19T08:17:06.679Z,3.64
2017-05-19T08:19:36.416Z,3.74
2017-05-19T08:22:05.431Z,3.50
2017-05-19T08:24:35.200Z,3.28
2017-05-19T08:27:04.920Z,3.94
2017-05-19T08:29:34.721Z,3.14
2017-05-19T08:32:04.457Z,3.90
2017-05-19T08:34:34.296Z,3.20
2017-05-19T08:37:04.048Z,3.18
2017-05-19T08:39:33.759Z,3.50
2017-05-19T08:42:03.486Z,3.34
2017-05-19T08:44:33.258Z,3.06
2017-05-19T08:47:02.992Z,5.66
2017-05-19T08:49:32.781Z,2.90
2017-05-19T08:52:02.507Z,3.56
2017-05-19T08:54:32.197Z,2.90
2017-05-19T08:57:02.132Z,3.68
2017-05-19T08:59:31.971Z,3.50
2017-05-19T09:02:01.784Z,5.94
2017-05-19T09:04:31.629Z,3.16
2017-05-19T09:07:01.617Z,3.66
2017-05-19T09:10:50.489Z,3.88
2017-05-19T09:13:20.170Z,3.38
2017-05-19T09:15:50.020Z,3.62
2017-05-19T09:18:19.833Z,5.28
2017-05-19T09:20:49.665Z,4.48
2017-05-19T09:23:19.486Z,5.98
2017-05-19T09:25:49.330Z,4.50
2017-05-19T09:28:19.152Z,4.56
2017-05-19T09:30:48.210Z,4.02
2017-05-19T09:33:17.973Z,3.72
2017-05-19T09:35:47.814Z,4.42
2017-05-19T09:38:17.736Z,4.14
2017-05-19T09:40:46.805Z,4.46
2017-05-19T09:43:16.565Z,4.30
2017-05-19T09:45:46.453Z,4.64
2017-05-19T09:48:15.925Z,3.52
2017-05-19T09:50:45.041Z,4.66
2017-05-19T09:53:14.840Z,4.22
2017-05-19T09:55:45.316Z,3.80
2017-05-19T09:58:15.121Z,4.68
2017-05-19T10:00:44.951Z,4.64
2017-05-19T10:03:16.121Z,5.00
2017-05-19T10:06:48.301Z,4.98
2017-05-19T10:09:18.158Z,5.04
2017-05-19T10:11:47.930Z,5.86
2017-05-19T10:14:18.027Z,4.76
2017-05-19T10:16:47.907Z,4.10
2017-05-19T10:19:17.797Z,4.86
2017-05-19T10:21:47.572Z,5.28
2017-05-19T10:24:17.423Z,4.88
2017-05-19T10:26:47.258Z,4.50
2017-05-19T10:29:17.135Z,4.44
2017-05-19T10:31:47.048Z,4.44
2017-05-19T10:34:17.019Z,5.36
2017-05-19T10:36:47.032Z,6.02
2017-05-19T10:39:17.861Z,6.42
2017-05-19T10:41:47.699Z,6.12
2017-05-19T10:44:17.515Z,6.14
2017-05-19T10:46:47.277Z,6.00
2017-05-19T10:49:17.119Z,4.66
2017-05-19T10:51:46.202Z,4.96
2017-05-19T10:54:15.404Z,4.92
2017-05-19T10:56:45.245Z,5.20
2017-05-19T10:59:15.072Z,5.40
2017-05-19T11:01:44.872Z,5.54
2017-05-19T11:04:13.855Z,4.76
2017-05-19T11:06:44.213Z,5.22
2017-05-19T11:09:14.021Z,5.08
2017-05-19T11:11:43.755Z,4.94
2017-05-19T11:14:13.721Z,4.90
2017-05-19T11:16:43.065Z,4.46
2017-05-19T11:19:12.905Z,5.72
2017-05-19T11:21:42.795Z,3.88
2017-05-19T11:24:12.737Z,4.24
2017-05-19T11:26:43.431Z,4.74
2017-05-19T11:29:13.215Z,5.60
2017-05-19T11:32:23.100Z,4.44
2017-05-19T11:34:53.164Z,5.24
2017-05-19T11:37:23.512Z,3.80
2017-05-19T11:39:53.480Z,3.88
2017-05-19T11:42:23.334Z,3.96
2017-05-19T11:44:53.153Z,3.90
2017-05-19T11:47:23.493Z,4.82
2017-05-19T11:49:53.353Z,4.70
2017-05-19T11:52:23.416Z,4.06
2017-05-19T11:54:53.316Z,5.04
2017-05-19T11:57:23.202Z,4.78
2017-05-19T11:59:54.064Z,4.02
2017-05-19T12:02:23.887Z,4.46
2017-05-19T12:04:53.776Z,3.90
2017-05-19T12:07:23.677Z,3.22
2017-05-19T12:19:38.767Z,3.40
2017-05-19T12:22:08.647Z,3.52
2017-05-19T12:24:39.720Z,3.38
2017-05-19T12:27:09.574Z,3.80
2017-05-19T12:29:39.846Z,3.76
2017-05-19T12:32:10.069Z,4.76
2017-05-19T12:34:40.930Z,4.88
2017-05-19T12:37:10.899Z,5.80
2017-05-19T12:39:41.087Z,5.98
2017-05-19T12:42:15.970Z,5.62
2017-05-19T12:44:46.007Z,5.60
2017-05-19T12:47:16.085Z,5.28
2017-05-19T12:49:45.923Z,6.38
2017-05-19T12:52:15.771Z,5.94
2017-05-19T12:54:45.589Z,7.06
2017-05-19T12:57:15.411Z,6.58
2017-05-19T12:59:45.799Z,6.50
2017-05-19T13:02:16.489Z,7.12
2017-05-19T13:04:46.344Z,6.38
2017-05-19T13:07:16.718Z,6.90
2017-05-19T13:09:46.555Z,7.34
2017-05-19T13:12:16.765Z,6.70
2017-05-19T13:14:49.282Z,7.52
2017-05-19T13:17:19.100Z,7.56
2017-05-19T13:19:49.575Z,7.58
2017-05-19T13:22:20.286Z,8.20
2017-05-19T13:24:52.241Z,7.60
2017-05-19T13:27:22.129Z,7.66
2017-05-19T13:29:52.011Z,9.96
2017-05-19T13:32:22.536Z,26.32
2017-05-19T13:34:52.465Z,27.88
2017-05-19T13:37:22.486Z,28.10
2017-05-19T13:39:52.494Z,30.02
2017-05-19T13:42:22.421Z,29.20
2017-05-19T13:44:52.337Z,38.12
2017-05-19T13:47:22.370Z,36.22
2017-05-19T13:49:52.345Z,31.32
2017-05-19T13:52:22.569Z,34.84
2017-05-19T13:54:53.732Z,35.18
2017-05-19T13:57:23.828Z,34.46
2017-05-19T13:59:54.534Z,36.98
2017-05-19T14:02:24.480Z,37.72
2017-05-19T14:04:54.485Z,37.68
2017-05-19T14:07:25.372Z,41.06
2017-05-19T14:09:56.784Z,38.64
2017-05-19T14:12:26.632Z,41.32
2017-05-19T14:14:56.963Z,41.84
2017-05-19T14:17:26.797Z,40.86
2017-05-19T14:19:59.100Z,42.28
2017-05-19T14:22:28.550Z,41.02
2017-05-19T14:24:58.541Z,43.14
2017-05-19T14:27:28.505Z,39.68
2017-05-19T14:29:59.500Z,39.08
2017-05-19T14:32:29.436Z,38.46
2017-05-19T14:35:00.099Z,32.04
2017-05-19T14:37:30.124Z,32.36
2017-05-19T14:40:00.014Z,34.82
2017-05-19T14:42:32.040Z,29.72
2017-05-19T14:45:02.829Z,30.60
2017-05-19T14:47:32.985Z,31.12
2017-05-19T14:50:02.790Z,30.54
2017-05-19T14:52:33.256Z,30.64
2017-05-19T14:55:03.302Z,28.32
2017-05-19T14:57:33.823Z,25.94
2017-05-19T15:00:04.431Z,25.04
2017-05-19T15:02:34.438Z,23.06
2017-05-19T15:05:04.522Z,23.94
2017-05-19T15:07:35.035Z,24.60
2017-05-19T15:10:05.583Z,26.30
2017-05-19T15:12:36.363Z,27.52
2017-05-19T15:15:06.225Z,27.36
2017-05-19T15:17:36.056Z,24.82
2017-05-19T15:20:06.280Z,26.20
2017-05-19T15:22:36.104Z,24.66
2017-05-19T15:25:05.947Z,25.80
2017-05-19T15:27:36.043Z,26.84
2017-05-19T15:30:05.861Z,26.16
2017-05-19T15:32:35.855Z,26.36
2017-05-19T15:35:05.948Z,22.74
2017-05-19T15:37:35.780Z,23.12
2017-05-19T15:40:05.751Z,22.04
2017-05-19T15:42:37.784Z,21.08
2017-05-19T15:45:07.937Z,21.10
2017-05-19T15:47:38.815Z,20.12
2017-05-19T15:50:08.721Z,18.96
2017-05-19T15:52:38.620Z,19.62
2017-05-19T15:55:08.654Z,21.78
2017-05-19T15:57:38.555Z,17.48
2017-05-19T16:00:08.411Z,16.38
2017-05-19T16:02:38.513Z,15.83
2017-05-19T16:05:08.424Z,13.18
2017-05-19T16:08:41.311Z,15.40
2017-05-19T16:11:10.376Z,12.24
2017-05-19T16:13:41.264Z,12.30
2017-05-19T16:16:11.201Z,12.20
2017-05-19T16:18:41.118Z,12.36
2017-05-19T16:21:10.918Z,11.24
2017-05-19T16:23:41.556Z,12.32
2017-05-19T16:26:11.419Z,11.34
2017-05-19T16:28:41.329Z,12.04
2017-05-19T16:31:11.119Z,11.92
2017-05-19T16:33:40.905Z,12.85
2017-05-19T16:36:10.974Z,11.90
2017-05-19T16:38:41.183Z,11.34
2017-05-19T16:41:11.346Z,10.90
2017-05-19T16:43:41.920Z,11.34
2017-05-19T16:46:11.798Z,9.88
2017-05-19T16:48:41.683Z,9.76
2017-05-19T16:51:11.625Z,9.50
2017-05-19T16:53:42.007Z,9.06
2017-05-19T16:56:13.299Z,8.88
2017-05-19T16:58:43.157Z,8.52
2017-05-19T17:01:13.057Z,7.88
2017-05-19T17:03:42.888Z,7.58
2017-05-19T17:06:12.606Z,7.34
2017-05-19T17:08:42.456Z,6.58
2017-05-19T17:11:12.550Z,7.13
2017-05-19T17:13:42.954Z,8.22
2017-05-19T17:16:14.829Z,5.60
2017-05-19T17:18:44.941Z,5.10
2017-05-19T17:21:14.042Z,5.88
2017-05-19T17:23:43.810Z,4.50
2017-05-19T17:26:13.580Z,5.33
2017-05-19T17:28:43.465Z,5.50
2017-05-19T17:31:14.188Z,4.06
2017-05-19T17:33:44.499Z,3.30
2017-05-19T17:36:16.082Z,4.94
2017-05-19T17:38:46.471Z,2.45
2017-05-19T17:41:17.223Z,3.00
2017-05-19T17:43:47.084Z,2.77
2017-05-19T17:46:16.835Z,3.57
2017-05-19T17:48:46.958Z,5.22
2017-05-19T17:51:16.856Z,4.43
2017-05-19T17:53:46.737Z,3.36
2017-05-19T17:56:16.689Z,3.40
2017-05-19T17:58:47.013Z,3.10
2017-05-19T18:01:16.792Z,3.40
2017-05-19T18:03:46.943Z,3.20
2017-05-19T18:06:17.062Z,3.88
2017-05-19T18:08:46.814Z,4.35
2017-05-19T18:11:16.572Z,3.43
2017-05-19T18:13:46.327Z,4.98
2017-05-19T18:16:16.788Z,12.70
2017-05-19T18:18:49.128Z,5.18
2017-05-19T18:21:18.953Z,4.90
2017-05-19T18:23:48.924Z,5.12
2017-05-19T18:26:19.799Z,4.45
2017-05-19T18:28:49.619Z,5.77
2017-05-19T18:31:20.574Z,5.38
2017-05-19T18:33:50.466Z,6.12
2017-05-19T18:36:20.300Z,17.48
2017-05-19T18:40:09.603Z,7.72
2017-05-19T18:42:39.356Z,6.77
2017-05-19T18:45:09.588Z,8.88
2017-05-19T18:47:39.668Z,8.15
2017-05-19T18:50:09.831Z,8.02
2017-05-19T18:52:40.679Z,8.30
2017-05-19T18:55:11.426Z,7.72
2017-05-19T18:57:41.224Z,8.35
2017-05-19T19:00:11.008Z,7.38
2017-05-19T19:02:40.779Z,7.18
2017-05-19T19:05:10.827Z,6.90
2017-05-19T19:09:00.048Z,6.97
2017-05-19T19:11:30.088Z,11.80
2017-05-19T19:13:59.384Z,7.32
2017-05-19T19:16:29.247Z,7.10
2017-05-19T19:18:59.027Z,7.50
2017-05-19T19:21:28.749Z,7.57
2017-05-19T19:23:58.583Z,8.88
2017-05-19T19:26:28.323Z,9.25
2017-05-19T19:28:58.472Z,8.65
2017-05-19T19:31:29.321Z,8.90
2017-05-19T19:34:01.248Z,9.65
2017-05-19T19:36:31.360Z,9.43
2017-05-19T19:39:01.138Z,11.40
2017-05-19T19:41:30.911Z,9.32
2017-05-19T19:44:00.848Z,9.73
2017-05-19T19:46:30.625Z,10.23
2017-05-19T19:49:01.373Z,10.30
2017-05-19T19:51:31.689Z,10.55
2017-05-19T19:54:02.342Z,9.58
2017-05-19T19:56:32.327Z,10.77
2017-05-19T19:59:03.845Z,11.23
2017-05-19T20:01:34.023Z,11.42
2017-05-19T20:04:04.399Z,10.42
2017-05-19T20:06:34.150Z,11.23
2017-05-19T20:09:05.943Z,11.73
2017-05-19T20:12:06.061Z,14.03
2017-05-19T20:14:35.801Z,12.28
2017-05-19T20:17:05.596Z,11.75
2017-05-19T20:19:35.963Z,10.67
2017-05-19T20:22:05.649Z,10.90
2017-05-19T20:24:34.627Z,8.00
2017-05-19T20:27:04.479Z,9.08
2017-05-19T20:29:40.739Z,10.53
2017-05-19T20:32:10.863Z,9.30
2017-05-19T20:34:40.596Z,8.25
2017-05-19T20:37:10.433Z,10.95
2017-05-19T20:39:43.240Z,10.93
2017-05-19T20:43:34.114Z,11.57
2017-05-19T20:46:03.857Z,12.40
2017-05-19T20:48:34.498Z,14.57
2017-05-19T20:51:05.248Z,12.97
2017-05-19T20:53:35.021Z,13.35
2017-05-19T20:56:04.796Z,12.70
2017-05-19T20:58:34.576Z,13.97
2017-05-19T21:01:05.208Z,15.50
2017-05-19T21:03:34.956Z,16.52
2017-05-19T21:06:06.029Z,19.42
2017-05-19T21:08:36.178Z,16.58
2017-05-19T21:11:06.033Z,15.82
2017-05-19T21:13:37.365Z,16.28
2017-05-19T21:16:07.899Z,17.80
2017-05-19T21:18:38.186Z,17.18
2017-05-19T21:21:08.079Z,17.35
2017-05-19T21:23:38.125Z,18.80
2017-05-19T21:26:07.138Z,20.58
2017-05-19T21:28:36.870Z,17.82
2017-05-19T21:31:07.463Z,18.82
2017-05-19T21:33:37.290Z,18.63
2017-05-19T21:36:06.333Z,21.02
2017-05-19T21:38:37.636Z,19.90
2017-05-19T21:41:13.994Z,20.83
2017-05-19T21:43:43.827Z,20.78
2017-05-19T21:46:13.545Z,20.68
2017-05-19T21:48:44.213Z,22.75
2017-05-19T21:51:14.192Z,24.18
2017-05-19T21:53:43.176Z,22.53
2017-05-19T21:56:13.062Z,21.72
2017-05-19T21:58:46.200Z,22.98
2017-05-19T22:01:16.927Z,20.13
2017-05-19T22:03:46.691Z,19.05
2017-05-19T22:06:15.711Z,20.98
2017-05-19T22:08:45.450Z,20.07
2017-05-19T22:11:15.116Z,20.35
2017-05-19T22:13:44.840Z,19.02
2017-05-19T22:16:14.592Z,19.92
2017-05-19T22:18:43.744Z,20.03
2017-05-19T22:21:13.507Z,21.82
2017-05-19T22:23:43.938Z,18.98
2017-05-19T22:26:13.735Z,18.88
2017-05-19T22:28:43.577Z,18.95
2017-05-19T22:31:13.623Z,18.73
2017-05-19T22:33:43.451Z,18.05
2017-05-19T22:36:13.277Z,17.97
2017-05-19T22:38:43.523Z,19.55
2017-05-19T22:41:13.263Z,19.02
2017-05-19T22:43:43.295Z,20.65
2017-05-19T22:46:13.891Z,18.57
2017-05-19T22:48:42.841Z,16.83
2017-05-19T22:51:11.897Z,17.75
2017-05-19T22:53:42.307Z,15.82
2017-05-19T22:56:12.124Z,17.47
2017-05-19T22:58:41.124Z,16.65
2017-05-19T23:01:10.848Z,17.57
2017-05-19T23:03:40.606Z,15.18
2017-05-19T23:06:09.598Z,18.70
2017-05-19T23:08:39.350Z,15.95
2017-05-19T23:11:08.298Z,16.88
2017-05-19T23:13:37.270Z,16.67
2017-05-19T23:16:07.000Z,20.47
2017-05-19T23:18:36.768Z,17.42
2017-05-19T23:21:06.448Z,17.93
2017-05-19T23:23:36.141Z,18.78
2017-05-19T23:26:05.871Z,22.10
2017-05-19T23:28:35.531Z,21.07
2017-05-19T23:31:05.261Z,18.62
2017-05-19T23:33:35.008Z,19.22
2017-05-19T23:36:04.710Z,18.63
2017-05-19T23:38:34.467Z,17.68
2017-05-19T23:41:04.391Z,19.47
2017-05-19T23:43:34.126Z,19.12
2017-05-19T23:46:03.144Z,16.95
2017-05-19T23:49:04.475Z,17.87
2017-05-19T23:51:34.193Z,18.70
2017-05-19T23:54:03.879Z,20.35
2017-05-19T23:56:33.845Z,17.40
2017-05-19T23:59:03.561Z,17.78
